createdAt,value
2019-05-10T19:29:51.053Z,97694.05
2019-05-10T19:30:19.948Z,97696.40
2019-05-10T19:30:44.176Z,97697.59
2019-05-10T19:31:08.425Z,97698.55
2019-05-10T19:31:38.040Z,97699.84
2019-05-10T19:32:11.674Z,97697.39
2019-05-10T19:32:36.285Z,97700.45
2019-05-10T19:33:01.038Z,97696.98
2019-05-10T19:33:29.768Z,97697.36
2019-05-10T19:33:53.776Z,97695.56
2019-05-10T19:34:18.158Z,97698.20
2019-05-10T19:34:48.285Z,97700.80
2019-05-10T19:35:12.558Z,97705.16
2019-05-10T19:35:37.948Z,97703.12
2019-05-10T19:36:12.234Z,97701.00
2019-05-10T19:36:32.704Z,97704.75
2019-05-10T19:36:57.098Z,97706.87
2019-05-10T19:37:30.079Z,97707.24
2019-05-10T19:37:52.474Z,97702.69
2019-05-10T19:38:17.568Z,97705.33
2019-05-10T19:38:45.123Z,97703.27
2019-05-10T19:39:09.781Z,97702.30
2019-05-10T19:39:34.154Z,97706.28
2019-05-10T19:39:58.389Z,97705.85
2019-05-10T19:40:22.625Z,97707.05
2019-05-10T19:40:46.849Z,97702.64
2019-05-10T19:41:11.105Z,97709.12
2019-05-10T19:41:35.332Z,97711.39
2019-05-10T19:42:03.825Z,97711.94
2019-05-10T19:42:31.200Z,97710.00
2019-05-10T19:42:55.153Z,97707.53
2019-05-10T19:43:21.624Z,97708.22
2019-05-10T19:43:50.035Z,97710.05
2019-05-10T19:44:14.326Z,97704.29
2019-05-10T19:44:40.551Z,97710.29
2019-05-10T19:45:06.622Z,97709.22
2019-05-10T19:45:31.666Z,97707.91
2019-05-10T19:45:58.085Z,97698.41
2019-05-10T19:46:23.745Z,97709.41
2019-05-10T19:46:51.835Z,97705.09
2019-05-10T19:47:20.057Z,97713.51
2019-05-10T19:47:49.982Z,97713.83
2019-05-10T19:48:13.479Z,97714.19
2019-05-10T19:48:39.742Z,97714.78
2019-05-10T19:49:10.900Z,97707.89
2019-05-10T19:49:35.602Z,97718.52
2019-05-10T19:49:59.879Z,97713.30
2019-05-10T19:50:30.792Z,97715.59
2019-05-10T19:51:02.811Z,97717.86
2019-05-10T19:51:26.962Z,97715.95
2019-05-10T19:51:51.307Z,97721.76
2019-05-10T19:52:21.316Z,97714.48
2019-05-10T19:52:45.484Z,97715.59
2019-05-10T19:53:09.936Z,97721.96
2019-05-10T19:53:36.349Z,97719.45
2019-05-10T19:54:04.732Z,97722.45
2019-05-10T19:54:29.542Z,97720.34
2019-05-10T19:54:54.142Z,97716.00
2019-05-10T19:55:19.730Z,97721.05
2019-05-10T19:55:51.376Z,97726.62
2019-05-10T19:56:15.883Z,97718.03
2019-05-10T19:56:41.097Z,97727.02
2019-05-10T19:57:15.614Z,97723.19
2019-05-10T19:57:41.445Z,97721.84
2019-05-10T19:58:06.310Z,97720.16
2019-05-10T19:58:32.486Z,97721.20
2019-05-10T19:58:57.496Z,97719.84
2019-05-10T19:59:22.540Z,97720.45
2019-05-10T19:59:50.247Z,97722.26
2019-05-10T20:00:14.618Z,97721.98
2019-05-10T20:00:38.818Z,97722.30
2019-05-10T20:01:03.071Z,97724.84
2019-05-10T20:01:27.396Z,97731.00
2019-05-10T20:01:51.698Z,97725.78
2019-05-10T20:02:18.278Z,97730.59
2019-05-10T20:02:50.585Z,97727.84
2019-05-10T20:03:14.835Z,97722.90
2019-05-10T20:03:39.096Z,97726.31
2019-05-10T20:04:03.343Z,97724.57
2019-05-10T20:04:28.113Z,97729.02
2019-05-10T20:04:53.344Z,97724.25
2019-05-10T20:05:17.670Z,97725.09
2019-05-10T20:05:41.965Z,97720.91
2019-05-10T20:06:06.209Z,97727.04
2019-05-10T20:06:30.474Z,97715.34
2019-05-10T20:06:54.534Z,97721.19
2019-05-10T20:07:18.798Z,97720.28
2019-05-10T20:07:46.260Z,97726.97
2019-05-10T20:08:10.214Z,97721.98
2019-05-10T20:08:34.506Z,97728.36
2019-05-10T20:08:58.549Z,97729.02
2019-05-10T20:09:23.111Z,97723.89
2019-05-10T20:09:47.373Z,97722.47
2019-05-10T20:10:12.666Z,97729.35
2019-05-10T20:10:36.933Z,97728.03
2019-05-10T20:11:00.976Z,97724.48
2019-05-10T20:11:25.268Z,97723.73
2019-05-10T20:11:49.523Z,97725.98
2019-05-10T20:12:14.082Z,97722.23
2019-05-10T20:12:38.651Z,97720.28
2019-05-10T20:13:02.720Z,97726.31
2019-05-10T20:13:27.459Z,97726.09
2019-05-10T20:13:51.693Z,97726.03
2019-05-10T20:14:15.975Z,97728.36
2019-05-10T20:14:40.208Z,97723.66
2019-05-10T20:15:06.105Z,97722.58
2019-05-10T20:15:30.340Z,97727.39
2019-05-10T20:15:55.017Z,97717.19
2019-05-10T20:16:19.268Z,97711.13
2019-05-10T20:16:52.372Z,97725.09
2019-05-10T20:17:13.083Z,97718.93
2019-05-10T20:17:37.774Z,97718.62
2019-05-10T20:18:02.557Z,97718.69
2019-05-10T20:18:28.821Z,97720.95
2019-05-10T20:18:53.481Z,97713.98
2019-05-10T20:19:17.576Z,97713.70
2019-05-10T20:19:41.840Z,97713.74
2019-05-10T20:20:07.228Z,97714.89
2019-05-10T20:20:31.485Z,97713.50
2019-05-10T20:20:55.816Z,97715.91
2019-05-10T20:21:19.921Z,97716.70
2019-05-10T20:21:44.162Z,97715.80
2019-05-10T20:22:18.606Z,97717.98
2019-05-10T20:22:49.261Z,97713.81
2019-05-10T20:23:13.578Z,97715.20
2019-05-10T20:23:40.843Z,97713.50
2019-05-10T20:24:05.133Z,97709.32
2019-05-10T20:24:29.367Z,97707.13
2019-05-10T20:24:53.612Z,97708.03
2019-05-10T20:25:17.856Z,97708.59
2019-05-10T20:25:41.918Z,97707.72
2019-05-10T20:26:06.171Z,97715.31
2019-05-10T20:26:30.416Z,97708.63
2019-05-10T20:26:54.680Z,97713.12
2019-05-10T20:27:22.899Z,97709.11
2019-05-10T20:27:51.010Z,97713.78
2019-05-10T20:28:18.194Z,97712.31
2019-05-10T20:29:43.417Z,97716.35
2019-05-10T20:30:11.272Z,97706.36
2019-05-10T20:31:02.877Z,97709.63
2019-05-10T20:31:30.504Z,97708.44
2019-05-10T20:31:54.461Z,97711.70
2019-05-10T20:32:18.594Z,97715.05
2019-05-10T20:32:42.974Z,97719.22
2019-05-10T20:33:07.299Z,97716.44
2019-05-10T20:33:31.619Z,97720.05
2019-05-10T20:33:55.914Z,97722.84
2019-05-10T20:34:24.067Z,97726.53
2019-05-10T20:34:49.762Z,97719.68
2019-05-10T20:35:24.745Z,97719.96
2019-05-10T20:35:59.389Z,97718.88
2019-05-10T20:36:27.135Z,97719.16
2019-05-10T20:36:52.674Z,97696.36
2019-05-10T20:37:19.235Z,97719.52
2019-05-10T20:38:00.768Z,97722.85
2019-05-10T20:38:35.841Z,97722.55
2019-05-10T20:39:01.085Z,97723.66
2019-05-10T20:39:25.521Z,97725.05
2019-05-10T20:39:52.679Z,97729.58
2019-05-10T20:40:17.002Z,97724.84
2019-05-10T20:40:41.079Z,97736.22
2019-05-10T20:41:13.350Z,97733.99
2019-05-10T20:41:46.733Z,97730.65
2019-05-10T20:42:12.698Z,97735.59
2019-05-10T20:42:36.962Z,97731.93
2019-05-10T20:43:01.055Z,97731.34
2019-05-10T20:43:25.304Z,97734.99
2019-05-10T20:43:49.541Z,97732.84
2019-05-10T20:44:13.834Z,97738.56
2019-05-10T20:44:38.170Z,97733.41
2019-05-10T20:45:07.403Z,97730.73
2019-05-10T20:45:31.488Z,97733.31
2019-05-10T20:45:56.116Z,97730.63
2019-05-10T20:46:20.342Z,97730.11
2019-05-10T20:46:44.592Z,97729.03
2019-05-10T20:47:08.628Z,97729.06
2019-05-10T20:47:32.903Z,97730.21
2019-05-10T20:47:58.490Z,97728.27
2019-05-10T20:48:24.905Z,97724.08
2019-05-10T20:48:52.143Z,97712.56
2019-05-10T20:49:22.394Z,97722.66
2019-05-10T20:49:48.875Z,97728.09
2019-05-10T20:50:21.992Z,97726.03
2019-05-10T20:50:46.273Z,97719.84
2019-05-10T20:51:10.535Z,97721.68
2019-05-10T20:51:34.834Z,97724.50
2019-05-10T20:51:59.241Z,97723.98
2019-05-10T20:52:25.104Z,97720.59
2019-05-10T20:53:04.689Z,97725.37
2019-05-10T20:53:29.028Z,97721.72
2019-05-10T20:54:01.647Z,97723.00
2019-05-10T20:54:26.028Z,97722.48
2019-05-10T20:54:51.611Z,97720.22
2019-05-10T20:55:15.874Z,97723.24
2019-05-10T20:55:40.157Z,97723.48
2019-05-10T20:56:04.290Z,97725.98
2019-05-10T20:56:28.738Z,97721.50
2019-05-10T20:56:55.060Z,97723.48
2019-05-10T20:57:19.284Z,97732.43
2019-05-10T20:57:43.617Z,97718.52
2019-05-10T20:58:09.163Z,97725.78
2019-05-10T20:58:37.619Z,97720.14
2019-05-10T20:59:03.171Z,97718.47
2019-05-10T21:00:30.221Z,97728.11
2019-05-10T21:01:07.694Z,97724.58
2019-05-10T21:01:32.699Z,97729.87
2019-05-10T21:01:58.316Z,97729.59
2019-05-10T21:02:22.710Z,97733.25
2019-05-10T21:02:48.176Z,97729.11
2019-05-10T21:03:12.574Z,97732.21
2019-05-10T21:03:41.756Z,97728.80
2019-05-10T21:04:08.527Z,97733.17
2019-05-10T21:04:32.766Z,97725.86
2019-05-10T21:04:56.816Z,97733.14
2019-05-10T21:05:21.124Z,97728.72
2019-05-10T21:05:45.422Z,97720.96
2019-05-10T21:06:09.776Z,97723.23
2019-05-10T21:06:34.154Z,97719.05
2019-05-10T21:07:00.233Z,97723.23
2019-05-10T21:07:24.869Z,97717.14
2019-05-10T21:07:49.272Z,97721.56
2019-05-10T21:08:17.114Z,97723.86
2019-05-10T21:08:40.988Z,97715.16
2019-05-10T21:09:06.493Z,97721.91
2019-05-10T21:09:30.743Z,97719.36
2019-05-10T21:09:54.991Z,97718.77
2019-05-10T21:10:19.229Z,97719.57
2019-05-10T21:10:43.506Z,97721.52
2019-05-10T21:11:07.591Z,97725.94
2019-05-10T21:11:31.845Z,97721.20
2019-05-10T21:11:56.081Z,97721.76
2019-05-10T21:12:20.362Z,97721.20
2019-05-10T21:12:47.729Z,97720.13
2019-05-10T21:13:13.542Z,97726.22
2019-05-10T21:14:02.669Z,97719.77
2019-05-10T21:14:26.918Z,97721.96
2019-05-10T21:14:56.136Z,97726.22
2019-05-10T21:15:23.148Z,97725.42
2019-05-10T21:15:47.729Z,97723.89
2019-05-10T21:16:12.261Z,97719.16
2019-05-10T21:16:40.034Z,97717.97
2019-05-10T21:17:04.659Z,97722.95
2019-05-10T21:17:28.840Z,97716.47
2019-05-10T21:17:53.115Z,97720.65
2019-05-10T21:18:17.352Z,97716.67
2019-05-10T21:18:41.693Z,97719.42
2019-05-10T21:19:06.402Z,97714.34
2019-05-10T21:19:30.500Z,97717.64
2019-05-10T21:19:57.628Z,97715.37
2019-05-10T21:20:21.854Z,97711.52
2019-05-10T21:20:46.180Z,97716.48
2019-05-10T21:21:10.570Z,97714.53
2019-05-10T21:21:34.758Z,97716.48
2019-05-10T21:21:58.991Z,97719.27
2019-05-10T21:22:23.225Z,97716.25
2019-05-10T21:22:47.535Z,97714.84
2019-05-10T21:23:11.791Z,97723.23
2019-05-10T21:23:35.864Z,97713.50
2019-05-10T21:24:00.181Z,97717.78
2019-05-10T21:24:24.522Z,97718.38
2019-05-10T21:24:48.773Z,97717.03
2019-05-10T21:25:13.040Z,97716.19
2019-05-10T21:25:37.114Z,97716.19
2019-05-10T21:26:01.382Z,97713.69
2019-05-10T21:26:25.667Z,97714.80
2019-05-10T21:26:52.244Z,97716.75
2019-05-10T21:27:16.502Z,97719.25
2019-05-10T21:27:40.706Z,97712.50
2019-05-10T21:28:05.050Z,97713.02
2019-05-10T21:28:29.307Z,97717.71
2019-05-10T21:28:55.100Z,97716.05
2019-05-10T21:29:19.459Z,97721.05
2019-05-10T21:29:43.584Z,97718.52
2019-05-10T21:30:07.857Z,97716.28
2019-05-10T21:30:32.185Z,97711.83
2019-05-10T21:30:59.484Z,97715.69
2019-05-10T21:31:42.203Z,97713.45
2019-05-10T21:32:06.523Z,97710.61
2019-05-10T21:32:30.871Z,97712.52
2019-05-10T21:32:55.142Z,97713.59
2019-05-10T21:33:19.414Z,97710.21
2019-05-10T21:33:43.702Z,97708.02
2019-05-10T21:34:10.215Z,97712.52
2019-05-10T21:34:37.053Z,97713.34
2019-05-10T21:35:06.364Z,97711.71
